Time;durP1;ratioP1;P1;durP2;ratioP2;P2;SDS_P1;SDS_P2;PMS_P1;PMS_P2;Temp;Humidity;BMP_temperature;BMP_pressure;BME280_temperature;BME280_humidity;BME280_pressure;Samples;Min_cycle;Max_cycle;Signal;HPM_P1;HPM_P2
2022/02/25 00:03:14;;;;;;;10.80;5.43;;;;;;;;;;19819070;30;20116;-65
2022/02/25 00:13:16;;;;;;;10.07;4.85;;;;;;;;;;19818793;30;20425;-67
2022/02/25 00:23:18;;;;;;;10.57;5.32;;;;;;;;;;19801828;29;20184;-63
2022/02/25 00:33:21;;;;;;;12.52;5.90;;;;;;;;;;19818993;30;20063;-65
2022/02/25 00:43:23;;;;;;;10.98;5.53;;;;;;;;;;19817321;30;20075;-64
2022/02/25 00:53:25;;;;;;;12.27;5.65;;;;;;;;;;19818357;30;20134;-65
2022/02/25 01:03:27;;;;;;;10.98;5.63;;;;;;;;;;19817411;30;20055;-66
2022/02/25 01:13:29;;;;;;;9.40;6.00;;;;;;;;;;19816796;30;20047;-65
2022/02/25 01:23:31;;;;;;;9.38;5.55;;;;;;;;;;19815949;29;20090;-65
2022/02/25 01:33:34;;;;;;;13.82;5.60;;;;;;;;;;19816249;30;20144;-64
2022/02/25 01:43:37;;;;;;;12.02;5.95;;;;;;;;;;19815913;30;20051;-64
2022/02/25 01:53:39;;;;;;;9.35;5.68;;;;;;;;;;19815196;30;20138;-63
2022/02/25 02:03:41;;;;;;;10.02;5.85;;;;;;;;;;19814162;30;20138;-65
2022/02/25 02:13:43;;;;;;;13.88;6.97;;;;;;;;;;19823370;29;20055;-64
2022/02/25 02:23:45;;;;;;;9.82;5.40;;;;;;;;;;19827084;29;20078;-64
2022/02/25 02:33:50;;;;;;;9.57;5.10;;;;;;;;;;19825463;30;20154;-65
2022/02/25 02:43:55;;;;;;;9.60;4.93;;;;;;;;;;19826233;30;20417;-64
2022/02/25 02:53:58;;;;;;;9.02;5.10;;;;;;;;;;19824105;30;20055;-64
2022/02/25 03:04:06;;;;;;;11.77;5.38;;;;;;;;;;19823708;30;20055;-65
2022/02/25 03:14:09;;;;;;;9.18;4.85;;;;;;;;;;19824050;30;20136;-64
2022/02/25 03:24:11;;;;;;;8.85;4.65;;;;;;;;;;19821751;29;20458;-64
2022/02/25 03:34:15;;;;;;;9.60;4.53;;;;;;;;;;19821631;30;20051;-64
2022/02/25 03:44:17;;;;;;;7.22;4.40;;;;;;;;;;19822280;30;20421;-64
2022/02/25 03:54:21;;;;;;;8.00;4.20;;;;;;;;;;19820278;30;20165;-64
2022/02/25 04:04:24;;;;;;;6.78;4.03;;;;;;;;;;19820587;30;20055;-64
2022/02/25 04:14:27;;;;;;;7.75;4.28;;;;;;;;;;19818302;30;20055;-64
2022/02/25 04:24:30;;;;;;;9.07;3.90;;;;;;;;;;19818562;29;20505;-64
2022/02/25 04:34:33;;;;;;;7.22;3.80;;;;;;;;;;19817239;29;20051;-65
2022/02/25 04:44:35;;;;;;;9.80;3.65;;;;;;;;;;19818149;30;20492;-64
2022/02/25 04:54:41;;;;;;;5.90;3.25;;;;;;;;;;19816372;30;20055;-65
2022/02/25 05:04:43;;;;;;;6.13;3.35;;;;;;;;;;19817119;30;20074;-64
2022/02/25 05:25:07;;;;;;;4.63;3.20;;;;;;;;;;19816414;30;20081;-70
2022/02/25 05:35:10;;;;;;;5.85;3.17;;;;;;;;;;19816611;30;20138;-66
2022/02/25 05:45:15;;;;;;;;;;;;;;;;;;19823478;29;20111;-67
2022/02/25 05:55:37;;;;;;;14.38;4.25;;;;;;;;;;19829499;30;19926;-67
2022/02/25 06:05:42;;;;;;;6.43;3.83;;;;;;;;;;19828798;30;20052;-67
2022/02/25 06:15:46;;;;;;;7.47;3.50;;;;;;;;;;19827060;30;20059;-65
2022/02/25 06:25:49;;;;;;;8.77;4.00;;;;;;;;;;19826641;30;20058;-66
2022/02/25 06:35:51;;;;;;;7.60;3.92;;;;;;;;;;19826584;30;20567;-66
2022/02/25 06:45:54;;;;;;;7.53;3.88;;;;;;;;;;19825145;30;20055;-65
2022/02/25 06:55:56;;;;;;;7.35;4.22;;;;;;;;;;19823274;29;20509;-63
2022/02/25 07:05:59;;;;;;;8.77;4.55;;;;;;;;;;19823603;30;20051;-61
2022/02/25 07:16:03;;;;;;;9.52;4.80;;;;;;;;;;19824203;30;20074;-64
2022/02/25 07:26:05;;;;;;;8.90;4.13;;;;;;;;;;19823051;30;20417;-63
2022/02/25 07:36:08;;;;;;;8.75;4.00;;;;;;;;;;19822237;30;20518;-62
2022/02/25 07:46:10;;;;;;;6.68;4.40;;;;;;;;;;19819968;30;20059;-63
2022/02/25 07:56:14;;;;;;;19.58;4.78;;;;;;;;;;19820664;30;20062;-60
2022/02/25 08:06:16;;;;;;;8.07;4.68;;;;;;;;;;19818425;30;20093;-70
2022/02/25 08:16:19;;;;;;;6.75;3.92;;;;;;;;;;19818563;30;20059;-65
2022/02/25 08:26:21;;;;;;;9.40;4.50;;;;;;;;;;19817355;30;20055;-64
2022/02/25 08:36:23;;;;;;;8.70;4.72;;;;;;;;;;19818471;30;20055;-67
2022/02/25 08:46:27;;;;;;;9.55;3.65;;;;;;;;;;19817231;30;20073;-62
2022/02/25 08:56:29;;;;;;;10.02;4.00;;;;;;;;;;19816531;30;20100;-68
2022/02/25 09:06:32;;;;;;;12.55;4.75;;;;;;;;;;19815373;30;20051;-64
2022/02/25 09:16:36;;;;;;;9.43;3.50;;;;;;;;;;19817333;29;20382;-65
2022/02/25 09:26:39;;;;;;;7.70;3.53;;;;;;;;;;19829963;30;20056;-62
2022/02/25 09:36:41;;;;;;;6.10;3.08;;;;;;;;;;19831238;30;20141;-64
2022/02/25 09:46:44;;;;;;;6.53;2.90;;;;;;;;;;19829936;30;20078;-64
2022/02/25 09:56:46;;;;;;;8.10;3.47;;;;;;;;;;19828611;30;20058;-64
2022/02/25 10:06:49;;;;;;;9.23;3.22;;;;;;;;;;19812827;30;20058;-64
2022/02/25 10:17:09;;;;;;;7.68;2.53;;;;;;;;;;19828039;30;20199;-65
2022/02/25 10:27:18;;;;;;;6.05;3.00;;;;;;;;;;19827755;29;20078;-64
2022/02/25 10:37:28;;;;;;;11.75;3.22;;;;;;;;;;19812059;29;20425;-59
2022/02/25 10:47:35;;;;;;;7.72;2.50;;;;;;;;;;19824627;30;20417;-62
2022/02/25 10:57:37;;;;;;;4.57;2.10;;;;;;;;;;19824709;29;20091;-61
2022/02/25 11:07:41;;;;;;;5.28;3.30;;;;;;;;;;19805993;29;20051;-58
2022/02/25 11:17:45;;;;;;;6.05;2.60;;;;;;;;;;19891176;29;20516;-62
2022/02/25 11:27:47;;;;;;;8.85;4.00;;;;;;;;;;19825810;29;20060;-59
2022/02/25 11:37:51;;;;;;;3.20;2.17;;;;;;;;;;19800904;30;20497;-57
2022/02/25 11:47:56;;;;;;;6.03;2.30;;;;;;;;;;19819841;29;20047;-65
2022/02/25 11:58:18;;;;;;;6.80;3.00;;;;;;;;;;19819726;30;20111;-68
2022/02/25 12:08:21;;;;;;;4.90;2.03;;;;;;;;;;19819932;29;20077;-65
2022/02/25 12:18:38;;;;;;;4.70;2.55;;;;;;;;;;21070222;27;20520;-61
2022/02/25 12:28:40;;;;;;;;;;;;;;;;;;21076240;28;20056;-69
2022/02/25 12:38:42;;;;;;;7.05;2.70;;;;;;;;;;21065613;28;19942;-67
2022/02/25 12:48:44;;;;;;;5.13;2.80;;;;;;;;;;21068018;28;20485;-65
2022/02/25 12:58:49;;;;;;;4.68;2.60;;;;;;;;;;21065316;28;20056;-60
2022/02/25 13:08:53;;;;;;;5.57;2.58;;;;;;;;;;21066891;28;20056;-61
2022/02/25 13:18:55;;;;;;;4.05;2.80;;;;;;;;;;21064734;28;20098;-62
2022/02/25 13:29:01;;;;;;;6.25;2.15;;;;;;;;;;21012360;28;20044;-70
2022/02/25 13:39:03;;;;;;;;;;;;;;;;;;21008876;28;20445;-65
2022/02/25 13:59:29;;;;;;;8.35;3.05;;;;;;;;;;21005898;28;20127;-63
2022/02/25 14:09:33;;;;;;;5.65;3.03;;;;;;;;;;21005751;28;20044;-69
2022/02/25 14:19:35;;;;;;;5.38;2.72;;;;;;;;;;21005556;28;20122;-70
2022/02/25 14:29:39;;;;;;;6.05;3.10;;;;;;;;;;21005399;28;20060;-61
2022/02/25 14:39:41;;;;;;;5.78;2.92;;;;;;;;;;21000265;28;20196;-68
2022/02/25 14:49:43;;;;;;;6.10;2.63;;;;;;;;;;21002391;28;20400;-66
2022/02/25 14:59:46;;;;;;;6.40;2.90;;;;;;;;;;21001470;28;20098;-64
2022/02/25 15:09:48;;;;;;;5.10;2.85;;;;;;;;;;20998396;28;20059;-64
2022/02/25 15:19:50;;;;;;;5.00;3.00;;;;;;;;;;20998010;28;20049;-70
2022/02/25 15:29:52;;;;;;;6.53;3.22;;;;;;;;;;20998855;28;20052;-62
2022/02/25 15:39:54;;;;;;;7.63;3.08;;;;;;;;;;20998482;28;20083;-62
2022/02/25 15:49:56;;;;;;;7.47;3.20;;;;;;;;;;20997610;28;20403;-63
2022/02/25 15:59:58;;;;;;;6.80;2.70;;;;;;;;;;20995035;28;20052;-66
2022/02/25 16:10:00;;;;;;;5.15;2.70;;;;;;;;;;20997375;28;20131;-67
2022/02/25 16:20:03;;;;;;;4.85;2.63;;;;;;;;;;20996859;28;20499;-66
2022/02/25 16:30:05;;;;;;;5.43;2.80;;;;;;;;;;20994609;28;20421;-67
2022/02/25 16:40:08;;;;;;;5.57;2.90;;;;;;;;;;20992797;28;20193;-60
2022/02/25 16:50:10;;;;;;;5.47;2.60;;;;;;;;;;20992486;28;20044;-61
2022/02/25 17:00:12;;;;;;;8.52;2.63;;;;;;;;;;20998634;28;20106;-64
2022/02/25 17:10:15;;;;;;;5.72;2.28;;;;;;;;;;21007142;28;20075;-64
2022/02/25 17:20:17;;;;;;;4.40;2.35;;;;;;;;;;21007199;28;20090;-62
2022/02/25 17:30:19;;;;;;;4.55;2.55;;;;;;;;;;21006222;28;20464;-64
2022/02/25 17:40:21;;;;;;;6.05;2.45;;;;;;;;;;21003852;28;20049;-61
2022/02/25 17:50:23;;;;;;;5.93;4.30;;;;;;;;;;21006069;28;20048;-59
2022/02/25 18:00:25;;;;;;;8.90;3.20;;;;;;;;;;21005552;28;20049;-65
2022/02/25 18:10:28;;;;;;;5.25;3.30;;;;;;;;;;21003324;28;20088;-66
2022/02/25 18:20:31;;;;;;;5.47;3.03;;;;;;;;;;21003239;28;20106;-64
2022/02/25 18:30:34;;;;;;;6.38;3.33;;;;;;;;;;21003522;28;20049;-65
2022/02/25 18:40:36;;;;;;;6.13;2.75;;;;;;;;;;21001499;28;20481;-60
2022/02/25 18:50:38;;;;;;;6.10;2.88;;;;;;;;;;21000572;28;20374;-63
2022/02/25 19:00:42;;;;;;;8.20;3.80;;;;;;;;;;21000108;28;20123;-69
2022/02/25 19:10:44;;;;;;;6.50;3.00;;;;;;;;;;20999966;28;20060;-61
2022/02/25 19:20:46;;;;;;;5.88;3.55;;;;;;;;;;20998617;28;20057;-62
2022/02/25 19:30:48;;;;;;;6.43;3.50;;;;;;;;;;20996961;28;20056;-71
2022/02/25 19:40:50;;;;;;;5.78;3.95;;;;;;;;;;20998172;28;20041;-60
2022/02/25 19:50:53;;;;;;;9.57;3.65;;;;;;;;;;21008244;28;20048;-66
2022/02/25 20:00:55;;;;;;;6.55;3.10;;;;;;;;;;21000896;28;20129;-69
2022/02/25 20:10:57;;;;;;;6.43;3.08;;;;;;;;;;20999641;28;20052;-65
2022/02/25 20:21:00;;;;;;;7.78;3.60;;;;;;;;;;20996851;28;20455;-71
2022/02/25 20:31:02;;;;;;;8.77;4.60;;;;;;;;;;20995450;28;20090;-63
2022/02/25 20:41:05;;;;;;;10.05;5.88;;;;;;;;;;21012463;28;20045;-65
2022/02/25 20:51:07;;;;;;;10.70;6.43;;;;;;;;;;21010777;28;20055;-67
2022/02/25 21:01:10;;;;;;;10.70;5.03;;;;;;;;;;21010234;28;20044;-70
2022/02/25 21:11:15;;;;;;;11.48;5.90;;;;;;;;;;21009779;28;20471;-73
2022/02/25 21:21:17;;;;;;;14.80;7.32;;;;;;;;;;21009224;28;20075;-70
2022/02/25 21:31:19;;;;;;;9.32;5.53;;;;;;;;;;21005659;28;20059;-71
2022/02/25 21:41:22;;;;;;;9.40;4.35;;;;;;;;;;21006400;28;20048;-71
2022/02/25 21:51:24;;;;;;;5.65;4.22;;;;;;;;;;21004367;28;20545;-72
2022/02/25 22:01:26;;;;;;;9.65;6.07;;;;;;;;;;21006243;28;20076;-72
2022/02/25 22:11:29;;;;;;;10.80;5.88;;;;;;;;;;21004707;28;20064;-71
2022/02/25 22:21:31;;;;;;;7.13;5.15;;;;;;;;;;21010611;28;20044;-70
2022/02/25 22:31:34;;;;;;;10.68;5.25;;;;;;;;;;21003183;28;20059;-70
2022/02/25 22:41:37;;;;;;;9.90;4.90;;;;;;;;;;21002006;28;20140;-72
2022/02/25 23:02:03;;;;;;;10.65;5.93;;;;;;;;;;21000209;28;20052;-72
2022/02/25 23:12:05;;;;;;;6.75;4.60;;;;;;;;;;20999189;28;20091;-72
2022/02/25 23:22:08;;;;;;;6.93;4.55;;;;;;;;;;20996836;28;20524;-71
2022/02/25 23:32:10;;;;;;;6.85;4.20;;;;;;;;;;20997392;28;20078;-70
2022/02/25 23:42:13;;;;;;;6.68;3.50;;;;;;;;;;20998662;28;20045;-70
2022/02/25 23:52:15;;;;;;;9.60;3.53;;;;;;;;;;20996653;28;20045;-61
